createdAt,value
2023-04-18T00:04:41.976Z,9.39
2023-04-18T00:09:43.301Z,9.41
2023-04-18T00:14:44.618Z,9.34
2023-04-18T00:19:46.262Z,9.29
2023-04-18T00:24:47.524Z,9.34
2023-04-18T00:29:48.809Z,9.39
2023-04-18T00:34:50.067Z,9.47
2023-04-18T00:39:53.794Z,9.54
2023-04-18T00:44:55.082Z,9.45
2023-04-18T00:49:56.626Z,9.48
2023-04-18T00:54:57.986Z,9.50
2023-04-18T00:59:59.381Z,9.54
2023-04-18T01:05:00.622Z,9.45
2023-04-18T01:10:02.025Z,9.18
2023-04-18T01:15:03.851Z,9.19
2023-04-18T01:20:06.365Z,9.27
2023-04-18T01:25:07.593Z,9.23
2023-04-18T01:30:08.881Z,9.15
2023-04-18T01:35:10.124Z,9.34
2023-04-18T01:40:11.424Z,9.29
2023-04-18T01:45:13.181Z,9.38
2023-04-18T01:50:14.503Z,9.23
2023-04-18T01:55:15.904Z,9.24
2023-04-18T02:00:17.309Z,9.37
2023-04-18T02:05:18.593Z,9.32
2023-04-18T02:10:20.047Z,9.32
2023-04-18T02:15:21.377Z,9.21
2023-04-18T02:20:22.678Z,8.91
2023-04-18T02:25:26.836Z,8.71
2023-04-18T02:30:28.059Z,8.76
2023-04-18T02:35:29.274Z,8.58
2023-04-18T02:40:30.487Z,8.52
2023-04-18T02:45:32.729Z,8.62
2023-04-18T02:50:35.478Z,8.68
2023-04-18T02:55:36.751Z,8.71
2023-04-18T03:00:38.046Z,8.89
2023-04-18T03:05:39.922Z,8.73
2023-04-18T03:10:41.284Z,8.60
2023-04-18T03:15:42.828Z,8.31
2023-04-18T03:20:44.116Z,8.05
2023-04-18T03:25:45.375Z,7.98
2023-04-18T03:30:46.620Z,7.99
2023-04-18T03:35:47.860Z,8.21
2023-04-18T03:40:49.203Z,8.01
2023-04-18T03:45:50.652Z,8.09
2023-04-18T03:50:51.927Z,7.85
2023-04-18T03:55:53.357Z,7.98
2023-04-18T04:00:54.580Z,8.02
2023-04-18T04:05:55.965Z,7.70
2023-04-18T04:10:57.211Z,8.08
2023-04-18T04:15:58.477Z,7.87
2023-04-18T04:20:59.764Z,7.79
2023-04-18T04:26:04.533Z,8.20
2023-04-18T04:31:06.805Z,8.39
2023-04-18T04:36:08.933Z,8.31
2023-04-18T04:41:10.220Z,8.60
2023-04-18T04:46:13.677Z,8.35
2023-04-18T04:51:15.137Z,8.64
2023-04-18T04:56:16.421Z,8.50
2023-04-18T05:01:18.004Z,8.53
2023-04-18T05:06:22.069Z,8.83
2023-04-18T05:11:23.293Z,8.77
2023-04-18T05:16:24.576Z,8.75
2023-04-18T05:21:27.352Z,8.88
2023-04-18T05:26:28.680Z,8.99
2023-04-18T05:31:29.999Z,9.10
2023-04-18T05:36:31.770Z,9.07
2023-04-18T05:41:33.225Z,9.02
2023-04-18T05:46:34.669Z,9.11
2023-04-18T05:51:36.016Z,9.10
2023-04-18T05:56:37.225Z,9.17
2023-04-18T06:01:38.452Z,9.12
2023-04-18T06:06:39.661Z,9.46
2023-04-18T06:11:40.871Z,9.52
2023-04-18T06:16:42.163Z,9.79
2023-04-18T06:21:43.641Z,9.79
2023-04-18T06:26:44.990Z,9.47
2023-04-18T06:31:48.167Z,9.59
2023-04-18T06:36:49.517Z,9.69
2023-04-18T06:41:50.876Z,10.04
2023-04-18T06:46:52.500Z,10.19
2023-04-18T06:51:53.791Z,9.93
2023-04-18T06:56:55.110Z,10.14
2023-04-18T07:01:56.443Z,10.18
2023-04-18T07:06:57.771Z,10.26
2023-04-18T07:11:59.097Z,9.99
2023-04-18T07:17:00.928Z,10.03
2023-04-18T07:22:02.283Z,9.89
2023-04-18T07:27:03.774Z,9.82
2023-04-18T07:32:06.191Z,9.86
2023-04-18T07:37:09.368Z,9.70
2023-04-18T07:42:11.416Z,9.78
2023-04-18T07:47:12.880Z,9.80
2023-04-18T07:52:15.990Z,10.09
2023-04-18T07:57:17.517Z,10.48
2023-04-18T08:02:19.758Z,10.60
2023-04-18T08:07:21.167Z,10.57
2023-04-18T08:12:22.661Z,10.88
2023-04-18T08:17:23.991Z,11.02
2023-04-18T08:22:25.358Z,11.25
2023-04-18T08:27:26.580Z,11.24
2023-04-18T08:32:27.923Z,11.45
2023-04-18T08:37:29.261Z,11.43
2023-04-18T08:42:30.486Z,11.43
2023-04-18T08:47:31.798Z,11.24
2023-04-18T08:52:34.198Z,11.36
2023-04-18T08:57:35.491Z,11.83
2023-04-18T09:02:42.834Z,11.51
2023-04-18T09:07:44.358Z,11.41
2023-04-18T09:12:52.176Z,11.45
2023-04-18T09:17:53.959Z,11.54
2023-04-18T09:22:58.075Z,11.46
2023-04-18T09:28:00.878Z,11.70
2023-04-18T09:33:04.833Z,11.93
2023-04-18T09:38:06.187Z,11.75
2023-04-18T09:43:08.627Z,11.88
2023-04-18T09:48:09.929Z,11.38
2023-04-18T09:53:11.255Z,11.75
2023-04-18T09:58:12.476Z,11.82
2023-04-18T10:03:13.782Z,12.09
2023-04-18T10:08:16.050Z,12.00
2023-04-18T10:13:17.308Z,12.03
2023-04-18T10:18:18.552Z,12.09
2023-04-18T10:23:19.856Z,12.40
2023-04-18T10:28:21.418Z,12.77
2023-04-18T10:33:30.318Z,12.54
2023-04-18T10:38:33.475Z,12.69
2023-04-18T10:43:34.785Z,12.72
2023-04-18T10:48:39.062Z,12.57
2023-04-18T10:53:40.432Z,12.68
2023-04-18T10:58:41.924Z,13.11
2023-04-18T11:03:43.366Z,13.12
2023-04-18T11:08:44.741Z,12.94
2023-04-18T11:13:46.232Z,13.36
2023-04-18T11:18:47.501Z,13.08
2023-04-18T11:23:48.822Z,13.52
2023-04-18T11:28:50.338Z,13.13
2023-04-18T11:33:51.585Z,13.48
2023-04-18T11:38:52.850Z,13.70
2023-04-18T11:43:54.353Z,13.82
2023-04-18T11:48:55.728Z,13.76
2023-04-18T11:53:56.978Z,14.01
2023-04-18T11:58:58.287Z,14.37
2023-04-18T12:03:59.783Z,14.18
2023-04-18T12:09:01.347Z,13.98
2023-04-18T12:14:04.211Z,14.40
2023-04-18T12:19:05.529Z,14.56
2023-04-18T12:24:06.869Z,15.84
2023-04-18T12:29:08.243Z,16.99
2023-04-18T12:34:09.662Z,16.67
2023-04-18T12:39:11.018Z,15.76
2023-04-18T12:44:12.874Z,15.38
2023-04-18T12:49:14.277Z,15.22
2023-04-18T12:54:15.630Z,15.07
2023-04-18T12:59:17.178Z,15.81
2023-04-18T13:04:18.735Z,15.93
2023-04-18T13:09:20.282Z,15.35
2023-04-18T13:14:21.523Z,15.98
2023-04-18T13:19:22.853Z,15.64
2023-04-18T13:24:24.177Z,15.50
2023-04-18T13:29:25.538Z,15.80
2023-04-18T13:34:26.831Z,15.28
2023-04-18T13:39:28.131Z,15.21
2023-04-18T13:44:29.513Z,15.65
2023-04-18T13:49:30.914Z,15.66
2023-04-18T13:54:32.231Z,15.24
2023-04-18T13:59:33.476Z,16.17
2023-04-18T14:04:34.936Z,15.82
2023-04-18T14:09:36.306Z,15.33
2023-04-18T14:14:37.588Z,15.42
2023-04-18T14:19:38.906Z,15.40
2023-04-18T14:24:40.424Z,15.34
2023-04-18T14:29:41.690Z,15.13
2023-04-18T14:34:42.912Z,14.30
2023-04-18T14:39:44.192Z,14.14
2023-04-18T14:44:45.969Z,14.48
2023-04-18T14:49:47.228Z,14.33
2023-04-18T14:54:48.642Z,14.25
2023-04-18T14:59:50.966Z,13.92
2023-04-18T15:04:54.344Z,13.57
2023-04-18T15:09:55.914Z,13.47
2023-04-18T15:14:57.221Z,13.88
2023-04-18T15:19:58.465Z,13.71
2023-04-18T15:24:59.772Z,13.61
2023-04-18T15:30:02.289Z,12.99
2023-04-18T15:35:03.522Z,12.93
2023-04-18T15:40:06.865Z,12.93
2023-04-18T15:45:08.147Z,12.81
2023-04-18T15:50:09.434Z,12.65
2023-04-18T15:55:10.697Z,12.97
2023-04-18T16:00:19.628Z,12.84
2023-04-18T16:05:20.942Z,13.41
2023-04-18T16:10:22.204Z,14.13
2023-04-18T16:15:23.456Z,13.24
2023-04-18T16:20:27.052Z,13.08
2023-04-18T16:25:28.296Z,12.84
2023-04-18T16:30:29.658Z,12.87
2023-04-18T16:35:30.892Z,12.89
2023-04-18T16:40:32.123Z,12.77
2023-04-18T16:45:33.434Z,12.71
2023-04-18T16:50:35.807Z,12.86
2023-04-18T16:55:37.052Z,12.61
2023-04-18T17:00:38.676Z,12.84
2023-04-18T17:05:40.392Z,12.88
2023-04-18T17:10:41.743Z,13.00
2023-04-18T17:15:43.038Z,12.58
2023-04-18T17:20:44.369Z,12.49
2023-04-18T17:25:46.215Z,12.74
2023-04-18T17:30:47.621Z,12.75
2023-04-18T17:35:48.946Z,12.52
2023-04-18T17:40:50.181Z,12.43
2023-04-18T17:45:51.547Z,12.14
2023-04-18T17:50:52.840Z,12.25
2023-04-18T17:55:55.476Z,12.10
2023-04-18T18:00:56.784Z,12.27
2023-04-18T18:05:58.246Z,12.10
2023-04-18T18:10:59.463Z,12.29
2023-04-18T18:16:00.747Z,12.12
2023-04-18T18:21:02.113Z,12.10
2023-04-18T18:26:04.146Z,12.38
2023-04-18T18:31:05.493Z,12.06
2023-04-18T18:36:06.837Z,11.91
2023-04-18T18:41:08.230Z,11.88
2023-04-18T18:46:09.477Z,11.81
2023-04-18T18:51:11.546Z,11.68
2023-04-18T18:56:12.767Z,11.87
2023-04-18T19:01:14.178Z,12.03
2023-04-18T19:06:15.540Z,12.24
2023-04-18T19:11:18.237Z,12.06
2023-04-18T19:16:19.570Z,12.14
2023-04-18T19:21:20.835Z,12.29
2023-04-18T19:26:23.019Z,11.96
2023-04-18T19:31:24.348Z,11.80
2023-04-18T19:36:26.341Z,12.03
2023-04-18T19:41:27.569Z,12.00
2023-04-18T19:46:28.897Z,11.82
2023-04-18T19:51:30.152Z,11.70
2023-04-18T19:56:31.696Z,11.85
2023-04-18T20:01:33.134Z,11.75
2023-04-18T20:06:34.447Z,11.51
2023-04-18T20:11:35.793Z,11.45
2023-04-18T20:16:37.325Z,11.57
2023-04-18T20:21:38.749Z,11.60
2023-04-18T20:26:40.040Z,11.65
2023-04-18T20:31:42.460Z,11.80
2023-04-18T20:36:43.797Z,11.59
2023-04-18T20:41:48.438Z,11.47
2023-04-18T20:46:49.776Z,11.54
2023-04-18T20:51:51.041Z,11.45
2023-04-18T20:56:52.260Z,11.57
2023-04-18T21:01:53.778Z,11.30
2023-04-18T21:06:55.208Z,11.37
2023-04-18T21:11:58.423Z,11.36
2023-04-18T21:16:59.831Z,11.45
2023-04-18T21:22:01.137Z,11.45
2023-04-18T21:27:02.489Z,11.07
2023-04-18T21:32:03.759Z,11.14
2023-04-18T21:37:05.174Z,11.34
2023-04-18T21:42:06.641Z,11.30
2023-04-18T21:47:07.945Z,11.14
2023-04-18T21:52:09.486Z,11.00
2023-04-18T21:57:10.768Z,11.07
2023-04-18T22:02:12.526Z,11.20
2023-04-18T22:07:15.434Z,11.08
2023-04-18T22:12:16.716Z,11.26
2023-04-18T22:17:17.957Z,11.23
2023-04-18T22:22:19.298Z,11.10
2023-04-18T22:27:20.572Z,11.04
2023-04-18T22:32:21.838Z,10.75
2023-04-18T22:37:23.162Z,10.96
2023-04-18T22:42:24.396Z,11.05
2023-04-18T22:47:25.962Z,11.10
2023-04-18T22:52:27.296Z,10.87
2023-04-18T22:57:28.559Z,10.91
2023-04-18T23:02:29.985Z,11.22
2023-04-18T23:07:31.278Z,11.19
2023-04-18T23:12:32.576Z,11.22
2023-04-18T23:17:34.922Z,11.26
2023-04-18T23:22:36.261Z,11.40
2023-04-18T23:27:37.482Z,11.22
2023-04-18T23:32:38.775Z,11.04
2023-04-18T23:37:40.179Z,11.23
2023-04-18T23:42:42.065Z,11.23
2023-04-18T23:47:43.487Z,11.07
2023-04-18T23:52:44.745Z,11.22
2023-04-18T23:57:46.119Z,11.23
